createdAt,value
2016-08-06T00:00:10.224Z,14.7
2016-08-06T00:00:20.224Z,14.7
2016-08-06T00:00:30.224Z,14.6
2016-08-06T00:00:40.226Z,14.7
2016-08-06T00:00:50.224Z,14.7
2016-08-06T00:01:00.226Z,14.7
2016-08-06T00:01:10.227Z,14.6
2016-08-06T00:01:20.231Z,14.7
2016-08-06T00:01:30.225Z,14.6
2016-08-06T00:01:40.229Z,14.6
2016-08-06T00:01:50.228Z,14.7
2016-08-06T00:02:00.227Z,14.6
2016-08-06T00:02:10.228Z,14.7
2016-08-06T00:02:20.228Z,14.7
2016-08-06T00:02:30.229Z,14.7
2016-08-06T00:02:40.231Z,14.7
2016-08-06T00:02:50.227Z,14.7
2016-08-06T00:03:00.230Z,14.7
2016-08-06T00:03:10.230Z,14.7
2016-08-06T00:03:20.237Z,14.7
2016-08-06T00:03:30.231Z,14.7
2016-08-06T00:03:40.230Z,14.6
2016-08-06T00:03:50.229Z,14.7
2016-08-06T00:04:00.228Z,14.7
2016-08-06T00:04:10.230Z,14.7
2016-08-06T00:04:20.231Z,14.7
2016-08-06T00:04:30.231Z,14.7
2016-08-06T00:04:40.231Z,14.6
2016-08-06T00:04:50.233Z,14.6
2016-08-06T00:05:00.232Z,14.7
2016-08-06T00:05:10.232Z,14.6
2016-08-06T00:05:20.234Z,14.7
2016-08-06T00:05:30.234Z,14.7
2016-08-06T00:05:40.234Z,14.7
2016-08-06T00:05:50.231Z,14.7
2016-08-06T00:06:00.235Z,14.6
2016-08-06T00:06:10.234Z,14.7
2016-08-06T00:06:20.235Z,14.7
2016-08-06T00:06:30.237Z,14.6
2016-08-06T00:06:40.236Z,14.7
2016-08-06T00:06:50.237Z,14.7
2016-08-06T00:07:00.238Z,14.7
2016-08-06T00:07:10.234Z,14.7
2016-08-06T00:07:20.236Z,14.7
2016-08-06T00:07:30.235Z,14.6
2016-08-06T00:07:40.235Z,14.7
2016-08-06T00:07:50.238Z,14.7
2016-08-06T00:08:00.240Z,14.6
2016-08-06T00:08:10.237Z,14.6
2016-08-06T00:08:20.240Z,14.6
2016-08-06T00:08:30.238Z,14.6
2016-08-06T00:08:40.241Z,14.7
2016-08-06T00:08:50.241Z,14.6
2016-08-06T00:09:00.238Z,14.7
2016-08-06T00:09:10.241Z,14.6
2016-08-06T00:09:20.238Z,14.5
2016-08-06T00:09:30.240Z,14.6
2016-08-06T00:09:40.242Z,14.6
2016-08-06T00:09:50.240Z,14.6
2016-08-06T00:10:00.242Z,14.5
2016-08-06T00:10:10.239Z,14.6
2016-08-06T00:10:20.242Z,14.5
2016-08-06T00:10:30.244Z,14.6
2016-08-06T00:10:40.243Z,14.6
2016-08-06T00:10:50.240Z,14.6
2016-08-06T00:11:00.244Z,14.5
2016-08-06T00:11:10.242Z,14.5
2016-08-06T00:11:20.243Z,14.5
2016-08-06T00:11:30.244Z,14.6
2016-08-06T00:11:40.243Z,14.6
2016-08-06T00:11:50.243Z,14.6
2016-08-06T00:12:00.241Z,14.6
2016-08-06T00:12:10.245Z,14.6
2016-08-06T00:12:20.251Z,14.7
2016-08-06T00:12:30.243Z,14.5
2016-08-06T00:12:40.243Z,14.6
2016-08-06T00:12:50.244Z,14.6
2016-08-06T00:13:00.249Z,14.6
2016-08-06T00:13:10.248Z,14.6
2016-08-06T00:13:20.244Z,14.6
2016-08-06T00:13:30.249Z,14.6
2016-08-06T00:13:40.248Z,14.6
2016-08-06T00:13:50.248Z,14.5
2016-08-06T00:14:00.250Z,14.5
2016-08-06T00:14:10.248Z,14.6
2016-08-06T00:14:20.250Z,14.6
2016-08-06T00:14:30.250Z,14.5
2016-08-06T00:14:40.248Z,14.6
2016-08-06T00:14:50.251Z,14.6
2016-08-06T00:15:10.250Z,14.6
2016-08-06T00:15:20.251Z,14.6
2016-08-06T00:15:30.249Z,14.7
2016-08-06T00:15:40.251Z,14.5
2016-08-06T00:15:50.250Z,14.5
2016-08-06T00:16:00.251Z,14.6
2016-08-06T00:16:10.251Z,14.6
2016-08-06T00:16:20.265Z,14.6
2016-08-06T00:16:30.251Z,14.5
2016-08-06T00:16:40.254Z,14.5
2016-08-06T00:16:50.258Z,14.6
2016-08-06T00:17:00.251Z,14.6
2016-08-06T00:17:10.253Z,14.6
2016-08-06T00:17:20.254Z,14.6
2016-08-06T00:17:30.252Z,14.5
2016-08-06T00:17:40.253Z,14.5
2016-08-06T00:17:50.257Z,14.6
2016-08-06T00:18:00.254Z,14.6
2016-08-06T00:18:10.253Z,14.6
2016-08-06T00:18:20.254Z,14.6
2016-08-06T00:18:30.257Z,14.6
2016-08-06T00:18:40.255Z,14.6
2016-08-06T00:18:50.257Z,14.5
2016-08-06T00:19:00.257Z,14.6
2016-08-06T00:19:10.256Z,14.6
2016-08-06T00:19:20.257Z,14.6
2016-08-06T00:19:30.261Z,14.5
2016-08-06T00:19:40.258Z,14.5
2016-08-06T00:20:00.258Z,14.5
2016-08-06T00:20:10.256Z,14.5
2016-08-06T00:20:20.259Z,14.5
2016-08-06T00:20:30.261Z,14.6
2016-08-06T00:20:40.260Z,14.6
2016-08-06T00:20:50.270Z,14.5
2016-08-06T00:21:00.259Z,14.5
2016-08-06T00:21:10.259Z,14.5
2016-08-06T00:21:20.261Z,14.5
2016-08-06T00:21:30.266Z,14.6
2016-08-06T00:21:40.262Z,14.5
2016-08-06T00:21:50.259Z,14.6
2016-08-06T00:22:00.262Z,14.5
2016-08-06T00:22:10.262Z,14.6
2016-08-06T00:22:20.263Z,14.5
2016-08-06T00:22:30.268Z,14.5
2016-08-06T00:22:40.264Z,14.6
2016-08-06T00:22:50.262Z,14.5
2016-08-06T00:23:00.264Z,14.5
2016-08-06T00:23:10.263Z,14.6
2016-08-06T00:23:20.264Z,14.6
2016-08-06T00:23:30.262Z,14.5
2016-08-06T00:23:40.265Z,14.6
2016-08-06T00:23:50.263Z,14.6
2016-08-06T00:24:00.266Z,14.6
2016-08-06T00:24:10.266Z,14.5
2016-08-06T00:24:20.264Z,14.6
2016-08-06T00:24:30.272Z,14.5
2016-08-06T00:24:40.265Z,14.5
2016-08-06T00:24:50.267Z,14.5
2016-08-06T00:25:00.267Z,14.5
2016-08-06T00:25:10.270Z,14.6
2016-08-06T00:25:20.266Z,14.5
2016-08-06T00:25:30.272Z,14.5
2016-08-06T00:25:40.269Z,14.6
2016-08-06T00:25:50.267Z,14.6
2016-08-06T00:26:00.269Z,14.5
2016-08-06T00:26:10.270Z,14.6
2016-08-06T00:26:20.267Z,14.6
2016-08-06T00:26:30.269Z,14.6
2016-08-06T00:26:40.269Z,14.6
2016-08-06T00:26:50.270Z,14.5
2016-08-06T00:27:00.271Z,14.6
2016-08-06T00:27:10.267Z,14.6
2016-08-06T00:27:20.269Z,14.6
2016-08-06T00:27:30.268Z,14.5
2016-08-06T00:27:40.271Z,14.5
2016-08-06T00:27:50.272Z,14.4
2016-08-06T00:28:00.270Z,14.5
2016-08-06T00:28:10.270Z,14.4
2016-08-06T00:28:20.272Z,14.4
2016-08-06T00:28:30.271Z,14.5
2016-08-06T00:28:40.273Z,14.5
2016-08-06T00:28:50.272Z,14.4
2016-08-06T00:29:00.273Z,14.5
2016-08-06T00:29:10.274Z,14.5
2016-08-06T00:29:20.273Z,14.5
2016-08-06T00:29:30.276Z,14.5
2016-08-06T00:29:40.273Z,14.5
2016-08-06T00:29:50.275Z,14.5
2016-08-06T00:30:10.274Z,14.5
2016-08-06T00:30:20.275Z,14.5
2016-08-06T00:30:30.275Z,14.5
2016-08-06T00:30:40.274Z,14.5
2016-08-06T00:30:50.275Z,14.6
2016-08-06T00:31:00.276Z,14.4
2016-08-06T00:31:10.275Z,14.5
2016-08-06T00:31:20.282Z,14.5
2016-08-06T00:31:30.277Z,14.5
2016-08-06T00:31:40.275Z,14.5
2016-08-06T00:31:50.277Z,14.4
2016-08-06T00:32:00.280Z,14.4
2016-08-06T00:32:10.278Z,14.4
2016-08-06T00:32:20.279Z,14.4
2016-08-06T00:32:30.276Z,14.4
2016-08-06T00:32:40.278Z,14.4
2016-08-06T00:32:50.279Z,14.4
2016-08-06T00:33:00.280Z,14.4
2016-08-06T00:33:10.278Z,14.4
2016-08-06T00:33:20.282Z,14.4
2016-08-06T00:33:30.279Z,14.4
2016-08-06T00:33:40.282Z,14.4
2016-08-06T00:33:50.281Z,14.4
2016-08-06T00:34:00.280Z,14.4
2016-08-06T00:34:10.282Z,14.4
2016-08-06T00:34:20.280Z,14.4
2016-08-06T00:34:30.282Z,14.4
2016-08-06T00:34:40.281Z,14.4
2016-08-06T00:34:50.283Z,14.4
2016-08-06T00:35:00.283Z,14.4
2016-08-06T00:35:10.281Z,14.4
2016-08-06T00:35:20.282Z,14.5
2016-08-06T00:35:30.285Z,14.5
2016-08-06T00:35:40.283Z,14.5
2016-08-06T00:35:50.285Z,14.5
2016-08-06T00:36:00.284Z,14.5
2016-08-06T00:36:10.288Z,14.5
2016-08-06T00:36:20.285Z,14.5
2016-08-06T00:36:30.287Z,14.5
2016-08-06T00:36:40.285Z,14.4
2016-08-06T00:36:50.285Z,14.6
2016-08-06T00:37:00.286Z,14.6
2016-08-06T00:37:10.285Z,14.5
2016-08-06T00:37:20.288Z,14.5
2016-08-06T00:37:30.286Z,14.4
2016-08-06T00:37:40.288Z,14.5
2016-08-06T00:37:50.290Z,14.5
2016-08-06T00:38:00.287Z,14.6
2016-08-06T00:38:10.285Z,14.5
2016-08-06T00:38:20.291Z,14.5
2016-08-06T00:38:30.288Z,14.5
2016-08-06T00:38:40.288Z,14.5
2016-08-06T00:38:50.289Z,14.5
2016-08-06T00:39:00.288Z,14.5
2016-08-06T00:39:10.290Z,14.5
2016-08-06T00:39:20.289Z,14.6
2016-08-06T00:39:30.290Z,14.5
2016-08-06T00:39:40.290Z,14.6
2016-08-06T00:39:50.289Z,14.5
2016-08-06T00:40:00.290Z,14.5
2016-08-06T00:40:10.292Z,14.5
2016-08-06T00:40:20.292Z,14.5
2016-08-06T00:40:30.292Z,14.5
2016-08-06T00:40:40.294Z,14.6
2016-08-06T00:40:50.292Z,14.5
2016-08-06T00:41:00.292Z,14.6
2016-08-06T00:41:10.293Z,14.4
2016-08-06T00:41:20.291Z,14.5
2016-08-06T00:41:30.293Z,14.5
2016-08-06T00:41:40.296Z,14.5
2016-08-06T00:41:50.297Z,14.5
2016-08-06T00:42:00.293Z,14.5
2016-08-06T00:42:10.294Z,14.5
2016-08-06T00:42:20.293Z,14.5
2016-08-06T00:42:30.306Z,14.4
2016-08-06T00:42:40.295Z,14.6
2016-08-06T00:42:50.296Z,14.5
2016-08-06T00:43:00.296Z,14.4
2016-08-06T00:43:10.293Z,14.5
2016-08-06T00:43:20.297Z,14.5
2016-08-06T00:43:30.296Z,14.4
2016-08-06T00:43:40.298Z,14.5
2016-08-06T00:43:50.298Z,14.5
2016-08-06T00:44:00.298Z,14.5
2016-08-06T00:44:10.298Z,14.5
2016-08-06T00:44:20.298Z,14.6
2016-08-06T00:44:30.297Z,14.5
2016-08-06T00:44:40.298Z,14.5
2016-08-06T00:44:50.297Z,14.5
2016-08-06T00:45:00.298Z,14.5
2016-08-06T00:45:10.299Z,14.5
2016-08-06T00:45:30.299Z,14.5
2016-08-06T00:45:40.300Z,14.5
2016-08-06T00:45:50.299Z,14.5
2016-08-06T00:46:00.301Z,14.4
2016-08-06T00:46:10.300Z,14.5
2016-08-06T00:46:20.304Z,14.4
2016-08-06T00:46:30.301Z,14.5
2016-08-06T00:46:40.302Z,14.5
2016-08-06T00:46:50.301Z,14.4
2016-08-06T00:47:00.301Z,14.5
2016-08-06T00:47:10.302Z,14.4
2016-08-06T00:47:20.301Z,14.4
2016-08-06T00:47:30.301Z,14.5
2016-08-06T00:47:40.302Z,14.5
2016-08-06T00:47:50.303Z,14.5
2016-08-06T00:48:00.304Z,14.5
2016-08-06T00:48:10.304Z,14.5
2016-08-06T00:48:20.304Z,14.4
2016-08-06T00:48:30.306Z,14.4
2016-08-06T00:48:40.303Z,14.4
2016-08-06T00:48:50.302Z,14.5
2016-08-06T00:49:00.306Z,14.4
2016-08-06T00:49:10.307Z,14.4
2016-08-06T00:49:20.304Z,14.5
2016-08-06T00:49:30.307Z,14.6
2016-08-06T00:49:40.313Z,14.6
2016-08-06T00:49:50.307Z,14.6
2016-08-06T00:50:00.308Z,14.6
2016-08-06T00:50:10.306Z,14.6
2016-08-06T00:50:20.308Z,14.6
2016-08-06T00:50:30.307Z,14.5
2016-08-06T00:50:40.306Z,14.5
2016-08-06T00:50:50.307Z,14.6
2016-08-06T00:51:00.310Z,14.5
2016-08-06T00:51:10.319Z,14.6
2016-08-06T00:51:20.311Z,14.6
2016-08-06T00:51:30.308Z,14.6
2016-08-06T00:51:40.309Z,14.6
2016-08-06T00:51:50.308Z,14.6
2016-08-06T00:52:00.309Z,14.6
2016-08-06T00:52:10.312Z,14.6
2016-08-06T00:52:20.312Z,14.5
2016-08-06T00:52:30.310Z,14.5
2016-08-06T00:52:40.311Z,14.6
2016-08-06T00:52:50.311Z,14.6
2016-08-06T00:53:00.309Z,14.6
2016-08-06T00:53:10.311Z,14.7
2016-08-06T00:53:20.311Z,14.6
2016-08-06T00:53:30.311Z,14.6
2016-08-06T00:53:40.310Z,14.6
2016-08-06T00:53:50.314Z,14.6
2016-08-06T00:54:00.311Z,14.6
2016-08-06T00:54:10.313Z,14.6
2016-08-06T00:54:20.317Z,14.6
2016-08-06T00:54:30.312Z,14.5
2016-08-06T00:54:40.314Z,14.6
2016-08-06T00:54:50.315Z,14.6
2016-08-06T00:55:00.313Z,14.5
2016-08-06T00:55:10.314Z,14.5
2016-08-06T00:55:20.315Z,14.6
2016-08-06T00:55:30.313Z,14.6
2016-08-06T00:55:40.327Z,14.6
2016-08-06T00:55:50.314Z,14.5
2016-08-06T00:56:00.315Z,14.6
2016-08-06T00:56:10.316Z,14.5
2016-08-06T00:56:20.317Z,14.6
2016-08-06T00:56:30.316Z,14.5
2016-08-06T00:56:40.316Z,14.6
2016-08-06T00:56:50.315Z,14.6
2016-08-06T00:57:00.318Z,14.7
2016-08-06T00:57:10.316Z,14.6
2016-08-06T00:57:20.317Z,14.6
2016-08-06T00:57:30.317Z,14.6
2016-08-06T00:57:40.318Z,14.7
2016-08-06T00:57:50.317Z,14.6
2016-08-06T00:58:00.318Z,14.8
2016-08-06T00:58:10.320Z,14.7
2016-08-06T00:58:20.317Z,14.7
2016-08-06T00:58:30.317Z,14.8
2016-08-06T00:58:40.321Z,14.8
2016-08-06T00:58:50.321Z,14.7
2016-08-06T00:59:00.320Z,14.8
2016-08-06T00:59:10.319Z,14.7
2016-08-06T00:59:20.320Z,14.7
2016-08-06T00:59:30.320Z,14.6
2016-08-06T00:59:40.321Z,14.7
2016-08-06T00:59:50.320Z,14.7
2016-08-06T01:00:00.320Z,14.6
2016-08-06T01:00:10.324Z,14.7
2016-08-06T01:00:30.321Z,14.6
2016-08-06T01:00:40.321Z,14.7
2016-08-06T01:00:50.321Z,14.6
2016-08-06T01:01:00.325Z,14.6
2016-08-06T01:01:10.325Z,14.6
2016-08-06T01:01:20.325Z,14.6
2016-08-06T01:01:30.326Z,14.6
2016-08-06T01:01:40.324Z,14.6
2016-08-06T01:01:50.326Z,14.5
2016-08-06T01:02:00.324Z,14.5
2016-08-06T01:02:10.327Z,14.6
2016-08-06T01:02:20.327Z,14.6
2016-08-06T01:02:30.326Z,14.6
2016-08-06T01:02:40.327Z,14.7
2016-08-06T01:02:50.325Z,14.5
2016-08-06T01:03:00.326Z,14.5
2016-08-06T01:03:10.327Z,14.6
2016-08-06T01:03:20.325Z,14.5
2016-08-06T01:03:30.330Z,14.7
2016-08-06T01:03:40.327Z,14.6
2016-08-06T01:03:50.329Z,14.5
2016-08-06T01:04:00.327Z,14.6
2016-08-06T01:04:10.329Z,14.7
2016-08-06T01:04:20.336Z,14.6
2016-08-06T01:04:30.328Z,14.6
2016-08-06T01:04:40.331Z,14.7
2016-08-06T01:04:50.332Z,14.7
2016-08-06T01:05:00.336Z,14.7
2016-08-06T01:05:10.333Z,14.7
2016-08-06T01:05:20.331Z,14.7
2016-08-06T01:05:30.333Z,14.7
2016-08-06T01:05:40.330Z,14.6
2016-08-06T01:05:50.330Z,14.7
2016-08-06T01:06:00.330Z,14.7
2016-08-06T01:06:10.331Z,14.7
2016-08-06T01:06:20.331Z,14.6
2016-08-06T01:06:30.332Z,14.6
2016-08-06T01:06:40.334Z,14.6
2016-08-06T01:06:50.330Z,14.5
2016-08-06T01:07:00.334Z,14.5
2016-08-06T01:07:10.331Z,14.6
2016-08-06T01:07:20.335Z,14.6
2016-08-06T01:07:30.333Z,14.6
2016-08-06T01:07:40.333Z,14.7
2016-08-06T01:07:50.333Z,14.7
2016-08-06T01:08:00.335Z,14.5
2016-08-06T01:08:10.334Z,14.5
2016-08-06T01:08:20.333Z,14.6
2016-08-06T01:08:30.333Z,14.5
2016-08-06T01:08:40.334Z,14.6
2016-08-06T01:08:50.346Z,14.5
2016-08-06T01:09:00.334Z,14.5
2016-08-06T01:09:10.337Z,14.6
2016-08-06T01:09:20.334Z,14.5
2016-08-06T01:09:30.336Z,14.6
2016-08-06T01:09:40.338Z,14.5
2016-08-06T01:09:50.337Z,14.6
2016-08-06T01:10:00.337Z,14.6
2016-08-06T01:10:10.335Z,14.6
2016-08-06T01:10:20.336Z,14.6
2016-08-06T01:10:30.338Z,14.6
2016-08-06T01:10:40.338Z,14.6
2016-08-06T01:10:50.339Z,14.6
2016-08-06T01:11:00.338Z,14.5
2016-08-06T01:11:10.339Z,14.6
2016-08-06T01:11:20.345Z,14.6
2016-08-06T01:11:30.336Z,14.6
2016-08-06T01:11:40.339Z,14.6
2016-08-06T01:11:50.338Z,14.5
2016-08-06T01:12:00.339Z,14.6
2016-08-06T01:12:10.339Z,14.5
2016-08-06T01:12:20.339Z,14.5
2016-08-06T01:12:30.339Z,14.4
2016-08-06T01:12:40.353Z,14.5
2016-08-06T01:12:50.354Z,14.4
2016-08-06T01:13:00.341Z,14.5
2016-08-06T01:13:10.341Z,14.5
2016-08-06T01:13:20.350Z,14.5
2016-08-06T01:13:30.343Z,14.5
2016-08-06T01:13:40.343Z,14.5
2016-08-06T01:13:50.342Z,14.4
2016-08-06T01:14:00.344Z,14.5
2016-08-06T01:14:10.341Z,14.5
2016-08-06T01:14:20.344Z,14.4
2016-08-06T01:14:30.343Z,14.4
2016-08-06T01:14:40.342Z,14.4
2016-08-06T01:14:50.345Z,14.4
2016-08-06T01:15:00.345Z,14.4
2016-08-06T01:15:10.345Z,14.4
2016-08-06T01:15:30.344Z,14.4
2016-08-06T01:15:40.343Z,14.4
2016-08-06T01:15:50.346Z,14.4
2016-08-06T01:16:00.346Z,14.5
2016-08-06T01:16:10.346Z,14.5
2016-08-06T01:16:20.347Z,14.4
2016-08-06T01:16:30.347Z,14.3
2016-08-06T01:16:40.348Z,14.4
2016-08-06T01:16:50.346Z,14.4
2016-08-06T01:17:00.347Z,14.4
2016-08-06T01:17:10.347Z,14.4
2016-08-06T01:17:20.346Z,14.4
2016-08-06T01:17:30.347Z,14.4
2016-08-06T01:17:40.351Z,14.4
2016-08-06T01:17:50.348Z,14.4
2016-08-06T01:18:00.347Z,14.4
2016-08-06T01:18:10.349Z,14.4
2016-08-06T01:18:20.350Z,14.4
2016-08-06T01:18:30.350Z,14.4
2016-08-06T01:18:40.350Z,14.4
2016-08-06T01:18:50.351Z,14.4
2016-08-06T01:19:00.350Z,14.4
2016-08-06T01:19:10.354Z,14.5
2016-08-06T01:19:20.349Z,14.5
2016-08-06T01:19:30.352Z,14.4
2016-08-06T01:19:40.350Z,14.4
2016-08-06T01:19:50.352Z,14.4
2016-08-06T01:20:00.355Z,14.4
2016-08-06T01:20:10.349Z,14.5
2016-08-06T01:20:20.353Z,14.5
2016-08-06T01:20:30.353Z,14.5
2016-08-06T01:20:40.352Z,14.5
2016-08-06T01:20:50.350Z,14.5
2016-08-06T01:21:00.354Z,14.5
2016-08-06T01:21:10.353Z,14.6
2016-08-06T01:21:20.354Z,14.6
2016-08-06T01:21:30.354Z,14.5
2016-08-06T01:21:40.354Z,14.5
2016-08-06T01:21:50.354Z,14.5
2016-08-06T01:22:00.354Z,14.4
2016-08-06T01:22:10.355Z,14.5
2016-08-06T01:22:20.359Z,14.5
2016-08-06T01:22:30.355Z,14.4
2016-08-06T01:22:40.355Z,14.5
2016-08-06T01:22:50.357Z,14.4
2016-08-06T01:23:00.359Z,14.5
2016-08-06T01:23:10.354Z,14.5
2016-08-06T01:23:20.356Z,14.5
2016-08-06T01:23:30.356Z,14.5
2016-08-06T01:23:40.356Z,14.4
2016-08-06T01:23:50.359Z,14.5
2016-08-06T01:24:00.358Z,14.4
2016-08-06T01:24:10.357Z,14.4
2016-08-06T01:24:20.359Z,14.4
2016-08-06T01:24:30.358Z,14.4
2016-08-06T01:24:40.359Z,14.4
2016-08-06T01:24:50.366Z,14.4
2016-08-06T01:25:00.357Z,14.4
2016-08-06T01:25:10.358Z,14.4
2016-08-06T01:25:20.360Z,14.4
2016-08-06T01:25:30.359Z,14.4
2016-08-06T01:25:40.359Z,14.4
2016-08-06T01:25:50.360Z,14.5
2016-08-06T01:26:00.359Z,14.5
2016-08-06T01:26:10.361Z,14.5
2016-08-06T01:26:20.360Z,14.5
2016-08-06T01:26:30.363Z,14.5
2016-08-06T01:26:40.360Z,14.6
2016-08-06T01:26:50.362Z,14.5
2016-08-06T01:27:00.364Z,14.5
2016-08-06T01:27:10.362Z,14.5
2016-08-06T01:27:20.362Z,14.5
2016-08-06T01:27:30.363Z,14.4
2016-08-06T01:27:40.362Z,14.5
2016-08-06T01:27:50.362Z,14.6
2016-08-06T01:28:00.362Z,14.5
2016-08-06T01:28:10.364Z,14.5
2016-08-06T01:28:20.366Z,14.5
2016-08-06T01:28:30.367Z,14.5
2016-08-06T01:28:40.363Z,14.6
2016-08-06T01:28:50.364Z,14.5
2016-08-06T01:29:00.366Z,14.5
2016-08-06T01:29:10.365Z,14.5
2016-08-06T01:29:20.363Z,14.5
2016-08-06T01:29:30.365Z,14.6
2016-08-06T01:29:40.367Z,14.5
2016-08-06T01:29:50.367Z,14.6
2016-08-06T01:30:00.366Z,14.6
2016-08-06T01:30:10.366Z,14.5
2016-08-06T01:30:30.377Z,14.6
2016-08-06T01:30:40.368Z,14.5
2016-08-06T01:30:50.367Z,14.5
2016-08-06T01:31:00.368Z,14.5
2016-08-06T01:31:10.367Z,14.5
2016-08-06T01:31:20.368Z,14.5
2016-08-06T01:31:30.368Z,14.6
2016-08-06T01:31:40.369Z,14.6
2016-08-06T01:31:50.370Z,14.6
2016-08-06T01:32:00.368Z,14.5
2016-08-06T01:32:10.368Z,14.5
2016-08-06T01:32:20.370Z,14.6
2016-08-06T01:32:30.370Z,14.6
2016-08-06T01:32:40.371Z,14.6
2016-08-06T01:32:50.369Z,14.6
2016-08-06T01:33:00.371Z,14.5
2016-08-06T01:33:10.370Z,14.6
2016-08-06T01:33:20.369Z,14.6
2016-08-06T01:33:30.373Z,14.6
2016-08-06T01:33:40.370Z,14.6
2016-08-06T01:33:50.372Z,14.5
2016-08-06T01:34:00.369Z,14.6
2016-08-06T01:34:10.372Z,14.5
2016-08-06T01:34:20.372Z,14.5
2016-08-06T01:34:30.382Z,14.5
2016-08-06T01:34:40.372Z,14.6
2016-08-06T01:34:50.373Z,14.6
2016-08-06T01:35:00.374Z,14.5
2016-08-06T01:35:10.374Z,14.6
2016-08-06T01:35:20.373Z,14.5
2016-08-06T01:35:30.372Z,14.6
2016-08-06T01:35:40.375Z,14.5
2016-08-06T01:35:50.375Z,14.6
2016-08-06T01:36:00.373Z,14.6
2016-08-06T01:36:10.376Z,14.6
2016-08-06T01:36:20.376Z,14.6
2016-08-06T01:36:30.375Z,14.6
2016-08-06T01:36:40.375Z,14.6
2016-08-06T01:36:50.376Z,14.6
2016-08-06T01:37:00.380Z,14.7
2016-08-06T01:37:10.377Z,14.6
2016-08-06T01:37:20.374Z,14.7
2016-08-06T01:37:30.375Z,14.7
2016-08-06T01:37:40.384Z,14.6
2016-08-06T01:37:50.378Z,14.6
2016-08-06T01:38:00.382Z,14.6
2016-08-06T01:38:10.378Z,14.6
2016-08-06T01:38:20.376Z,14.5
2016-08-06T01:38:30.378Z,14.6
2016-08-06T01:38:40.380Z,14.6
2016-08-06T01:38:50.380Z,14.5
2016-08-06T01:39:00.381Z,14.5
2016-08-06T01:39:10.378Z,14.5
2016-08-06T01:39:20.379Z,14.5
2016-08-06T01:39:30.379Z,14.6
2016-08-06T01:39:40.382Z,14.5
2016-08-06T01:39:50.381Z,14.5
2016-08-06T01:40:00.383Z,14.5
2016-08-06T01:40:10.382Z,14.5
2016-08-06T01:40:20.383Z,14.5
2016-08-06T01:40:30.381Z,14.5
2016-08-06T01:40:40.381Z,14.5
2016-08-06T01:40:50.382Z,14.5
2016-08-06T01:41:00.382Z,14.5
2016-08-06T01:41:10.380Z,14.4
2016-08-06T01:41:20.382Z,14.5
2016-08-06T01:41:30.381Z,14.5
2016-08-06T01:41:40.383Z,14.4
2016-08-06T01:41:50.383Z,14.4
2016-08-06T01:42:00.386Z,14.5
2016-08-06T01:42:10.390Z,14.4
2016-08-06T01:42:20.384Z,14.5
2016-08-06T01:42:30.383Z,14.5
2016-08-06T01:42:40.385Z,14.5
2016-08-06T01:42:50.385Z,14.4
2016-08-06T01:43:00.385Z,14.5
2016-08-06T01:43:10.384Z,14.5
2016-08-06T01:43:20.384Z,14.5
2016-08-06T01:43:30.385Z,14.5
2016-08-06T01:43:40.386Z,14.6
2016-08-06T01:43:50.387Z,14.5
2016-08-06T01:44:00.385Z,14.4
2016-08-06T01:44:10.387Z,14.5
2016-08-06T01:44:20.388Z,14.5
2016-08-06T01:44:30.387Z,14.4
2016-08-06T01:44:40.387Z,14.5
2016-08-06T01:44:50.388Z,14.6
2016-08-06T01:45:00.387Z,14.5
2016-08-06T01:45:10.388Z,14.5
2016-08-06T01:45:30.388Z,14.5
2016-08-06T01:45:40.389Z,14.5
2016-08-06T01:45:50.388Z,14.5
2016-08-06T01:46:00.391Z,14.5
2016-08-06T01:46:10.389Z,14.4
2016-08-06T01:46:20.391Z,14.5
2016-08-06T01:46:30.391Z,14.5
2016-08-06T01:46:40.389Z,14.5
2016-08-06T01:46:50.389Z,14.4
2016-08-06T01:47:00.391Z,14.5
2016-08-06T01:47:10.402Z,14.4
2016-08-06T01:47:20.391Z,14.4
2016-08-06T01:47:30.391Z,14.4
2016-08-06T01:47:40.392Z,14.5
2016-08-06T01:47:50.394Z,14.5
2016-08-06T01:48:00.392Z,14.5
2016-08-06T01:48:10.392Z,14.4
2016-08-06T01:48:20.394Z,14.5
2016-08-06T01:48:30.395Z,14.6
2016-08-06T01:48:40.393Z,14.5
2016-08-06T01:48:50.391Z,14.4
2016-08-06T01:49:00.395Z,14.5
2016-08-06T01:49:10.394Z,14.4
2016-08-06T01:49:20.395Z,14.4
2016-08-06T01:49:30.395Z,14.4
2016-08-06T01:49:40.396Z,14.4
2016-08-06T01:49:50.392Z,14.3
2016-08-06T01:50:00.395Z,14.3
2016-08-06T01:50:10.392Z,14.3
2016-08-06T01:50:20.395Z,14.4
2016-08-06T01:50:30.396Z,14.4
2016-08-06T01:50:40.395Z,14.5
2016-08-06T01:50:50.395Z,14.5
2016-08-06T01:51:00.398Z,14.5
2016-08-06T01:51:10.396Z,14.4
2016-08-06T01:51:20.398Z,14.4
2016-08-06T01:51:30.398Z,14.5
2016-08-06T01:51:40.398Z,14.5
2016-08-06T01:51:50.401Z,14.4
2016-08-06T01:52:00.397Z,14.4
2016-08-06T01:52:10.397Z,14.5
2016-08-06T01:52:20.399Z,14.4
2016-08-06T01:52:30.398Z,14.4
2016-08-06T01:52:40.399Z,14.4
2016-08-06T01:52:50.398Z,14.4
2016-08-06T01:53:00.399Z,14.4
2016-08-06T01:53:10.401Z,14.4
2016-08-06T01:53:20.399Z,14.4
2016-08-06T01:53:30.400Z,14.4
2016-08-06T01:53:40.401Z,14.3
2016-08-06T01:53:50.401Z,14.4
2016-08-06T01:54:00.401Z,14.3
2016-08-06T01:54:10.401Z,14.3
2016-08-06T01:54:20.403Z,14.3
2016-08-06T01:54:30.401Z,14.3
2016-08-06T01:54:40.402Z,14.3
2016-08-06T01:54:50.402Z,14.3
2016-08-06T01:55:00.403Z,14.3
2016-08-06T01:55:10.402Z,14.3
2016-08-06T01:55:20.401Z,14.4
2016-08-06T01:55:30.402Z,14.3
2016-08-06T01:55:40.402Z,14.3
2016-08-06T01:55:50.404Z,14.3
2016-08-06T01:56:00.403Z,14.3
2016-08-06T01:56:10.405Z,14.3
2016-08-06T01:56:20.402Z,14.2
2016-08-06T01:56:30.406Z,14.2
2016-08-06T01:56:40.404Z,14.3
2016-08-06T01:56:50.404Z,14.3
2016-08-06T01:57:00.406Z,14.3
2016-08-06T01:57:10.406Z,14.2
2016-08-06T01:57:20.410Z,14.2
2016-08-06T01:57:30.404Z,14.2
2016-08-06T01:57:40.406Z,14.3
2016-08-06T01:57:50.404Z,14.2
2016-08-06T01:58:00.406Z,14.3
2016-08-06T01:58:10.405Z,14.2
2016-08-06T01:58:20.406Z,14.2
2016-08-06T01:58:30.406Z,14.2
2016-08-06T01:58:40.407Z,14.2
2016-08-06T01:58:50.408Z,14.2
2016-08-06T01:59:00.407Z,14.2
2016-08-06T01:59:10.406Z,14.2
2016-08-06T01:59:20.407Z,14.2
2016-08-06T01:59:30.407Z,14.3
2016-08-06T01:59:40.410Z,14.2
2016-08-06T01:59:50.409Z,14.3
2016-08-06T02:00:00.406Z,14.3
2016-08-06T02:00:10.409Z,14.2
2016-08-06T02:00:30.409Z,14.2
2016-08-06T02:00:40.409Z,14.2
2016-08-06T02:00:50.410Z,14.3
2016-08-06T02:01:00.411Z,14.2
2016-08-06T02:01:10.414Z,14.2
2016-08-06T02:01:20.410Z,14.2
2016-08-06T02:01:30.410Z,14.2
2016-08-06T02:01:40.412Z,14.2
2016-08-06T02:01:50.410Z,14.2
2016-08-06T02:02:00.411Z,14.2
2016-08-06T02:02:10.410Z,14.2
2016-08-06T02:02:20.411Z,14.2
2016-08-06T02:02:30.413Z,14.2
2016-08-06T02:02:40.412Z,14.1
2016-08-06T02:02:50.413Z,14.1
2016-08-06T02:03:00.413Z,14.1
2016-08-06T02:03:10.413Z,14.1
2016-08-06T02:03:20.414Z,14.2
2016-08-06T02:03:30.412Z,14.2
2016-08-06T02:03:40.412Z,14.1
2016-08-06T02:03:50.414Z,14.2
2016-08-06T02:04:00.418Z,14.2
2016-08-06T02:04:10.415Z,14.2
2016-08-06T02:04:20.414Z,14
2016-08-06T02:04:30.413Z,14.1
2016-08-06T02:04:40.414Z,14.3
2016-08-06T02:04:50.416Z,14.1
2016-08-06T02:05:00.414Z,14.1
2016-08-06T02:05:10.417Z,14.2
2016-08-06T02:05:20.413Z,14.2
2016-08-06T02:05:30.417Z,14.1
2016-08-06T02:05:40.417Z,14.1
2016-08-06T02:05:50.414Z,14.1
2016-08-06T02:06:00.416Z,14
2016-08-06T02:06:10.417Z,14.2
2016-08-06T02:06:20.415Z,14.1
2016-08-06T02:06:30.418Z,14.1
2016-08-06T02:06:40.417Z,14.1
2016-08-06T02:06:50.417Z,14
2016-08-06T02:07:00.418Z,14.2
2016-08-06T02:07:10.417Z,14.1
2016-08-06T02:07:20.417Z,14.1
2016-08-06T02:07:30.418Z,14.2
2016-08-06T02:07:40.417Z,14.1
2016-08-06T02:07:50.417Z,14.2
2016-08-06T02:08:00.419Z,14.1
2016-08-06T02:08:10.420Z,14.1
2016-08-06T02:08:20.420Z,14.1
2016-08-06T02:08:30.420Z,14.2
2016-08-06T02:08:40.421Z,14.1
2016-08-06T02:08:50.420Z,14.2
2016-08-06T02:09:00.421Z,14.1
2016-08-06T02:09:10.422Z,14
2016-08-06T02:09:20.421Z,14
2016-08-06T02:09:30.422Z,14.1
2016-08-06T02:09:40.421Z,14.1
2016-08-06T02:09:50.421Z,14
2016-08-06T02:10:00.425Z,14
2016-08-06T02:10:10.421Z,14.1
2016-08-06T02:10:20.422Z,14
2016-08-06T02:10:30.424Z,14.1
2016-08-06T02:10:40.427Z,14.2
2016-08-06T02:10:50.424Z,14.1
2016-08-06T02:11:00.423Z,14.1
2016-08-06T02:11:10.425Z,14.1
2016-08-06T02:11:20.426Z,14.1
2016-08-06T02:11:30.421Z,14
2016-08-06T02:11:40.425Z,14
2016-08-06T02:11:50.426Z,14.1
2016-08-06T02:12:00.423Z,14.1
2016-08-06T02:12:10.425Z,14.2
2016-08-06T02:12:20.424Z,14.2
2016-08-06T02:12:30.425Z,14.1
2016-08-06T02:12:40.428Z,14.1
2016-08-06T02:12:50.428Z,14.1
2016-08-06T02:13:00.423Z,14.1
2016-08-06T02:13:10.429Z,14.1
2016-08-06T02:13:20.427Z,14.1
2016-08-06T02:13:30.428Z,14.1
2016-08-06T02:13:40.426Z,14.1
2016-08-06T02:13:50.425Z,14.1
2016-08-06T02:14:00.426Z,14.1
2016-08-06T02:14:10.426Z,14.2
2016-08-06T02:14:20.427Z,14.1
2016-08-06T02:14:30.429Z,14
2016-08-06T02:14:40.436Z,14.1
2016-08-06T02:14:50.426Z,14